PWSweather.com
Personal Weather Stations
Station Observations
UWIDEPER1
Brown County, Depere, WI 54115

Brown CountyDepere, WI 54115

Lat: 44.44, Lon: -88.05

Elevation: 610

Station Type: Acurite 5in1

www.depereweather.com

High Low Average
Temperature 12.2°F-11.0°C -2.2°F-19.0°C 5.0°F-15.0°C
Dew Point 2.7°F-16.3°C -6.6°F-21.4°C -1.4°F-18.6°C
Winds 8.1 mph 13.0 kmh Calm Calm 4.0 mph WSW6.4 kmh WSW
Wind Gusts 12.7 mph20.4 kmh -- 5.0 mph8.0 kmh
Humidity 86% 59% 75%
Pressure 30.69 in1039.3 mb 30.54 in1034.2 mb -
Precipitation 0.00 in0.0 mm - -
Hour Temp Dew Point Humidity Winds Wind Gusts Pressure Precip Precip Rate Daily Precip Total
12:00 AM 5.0°F-15.0°C 0.4°F-17.6°C 81% 4.6 mph WNW7.4 kmh WNW 3.5 mph5.6 kmh 30.55 in1034.5 mb - 0.00 in0.0 mm 0.00 in0.0 mm
12:10 AM 5.0°F-15.0°C 0.2°F-17.7°C 80% 6.9 mph WNW11.1 kmh WNW 3.5 mph5.6 kmh 30.55 in1034.5 mb - 0.00 in0.0 mm 0.00 in0.0 mm
12:15 AM 5.0°F-15.0°C 0.2°F-17.7°C 80% 4.6 mph W7.4 kmh W 9.2 mph14.8 kmh 30.55 in1034.5 mb - 0.00 in0.0 mm 0.00 in0.0 mm
12:20 AM 5.0°F-15.0°C 0.4°F-17.6°C 81% 4.6 mph WNW7.4 kmh WNW 6.9 mph11.1 kmh 30.55 in1034.5 mb - 0.00 in0.0 mm 0.00 in0.0 mm
12:25 AM 5.0°F-15.0°C 0.2°F-17.7°C 80% 5.8 mph WNW9.3 kmh WNW 8.1 mph13.0 kmh 30.54 in1034.2 mb - 0.00 in0.0 mm 0.00 in0.0 mm
12:30 AM 5.0°F-15.0°C 0.2°F-17.7°C 80% 4.6 mph E7.4 kmh E 4.6 mph7.4 kmh 30.55 in1034.5 mb - 0.00 in0.0 mm 0.00 in0.0 mm
12:35 AM 5.0°F-15.0°C 0.2°F-17.7°C 80% 3.5 mph W5.6 kmh W 3.5 mph5.6 kmh 30.55 in1034.5 mb - 0.00 in0.0 mm 0.00 in0.0 mm
12:40 AM 5.0°F-15.0°C 0.4°F-17.6°C 81% 4.6 mph WNW7.4 kmh WNW 8.1 mph13.0 kmh 30.55 in1034.5 mb - 0.00 in0.0 mm 0.00 in0.0 mm
12:45 AM 5.0°F-15.0°C 0.4°F-17.6°C 81% 5.8 mph W9.3 kmh W 9.2 mph14.8 kmh 30.55 in1034.5 mb - 0.00 in0.0 mm 0.00 in0.0 mm
12:50 AM 5.0°F-15.0°C 0.4°F-17.6°C 81% 4.6 mph W7.4 kmh W 8.1 mph13.0 kmh 30.55 in1034.5 mb - 0.00 in0.0 mm 0.00 in0.0 mm
12:55 AM 5.0°F-15.0°C 0.2°F-17.7°C 80% 5.8 mph W9.3 kmh W 3.5 mph5.6 kmh 30.56 in1034.9 mb - 0.00 in0.0 mm 0.00 in0.0 mm
01:00 AM 5.0°F-15.0°C 0.2°F-17.7°C 80% 5.8 mph NW9.3 kmh NW 10.4 mph16.7 kmh 30.55 in1034.5 mb - 0.00 in0.0 mm 0.00 in0.0 mm
01:10 AM 5.0°F-15.0°C 0.2°F-17.7°C 80% 5.8 mph W9.3 kmh W 6.9 mph11.1 kmh 30.55 in1034.5 mb - 0.00 in0.0 mm 0.00 in0.0 mm
01:15 AM 3.2°F-16.0°C -1.6°F-18.7°C 80% 4.6 mph WNW7.4 kmh WNW 8.1 mph13.0 kmh 30.56 in1034.9 mb - 0.00 in0.0 mm 0.00 in0.0 mm
01:20 AM 3.2°F-16.0°C -1.6°F-18.7°C 80% 5.8 mph W9.3 kmh W 4.6 mph7.4 kmh 30.56 in1034.9 mb - 0.00 in0.0 mm 0.00 in0.0 mm
01:25 AM 3.2°F-16.0°C -1.6°F-18.7°C 80% 4.6 mph W7.4 kmh W 8.1 mph13.0 kmh 30.57 in1035.2 mb - 0.00 in0.0 mm 0.00 in0.0 mm
01:30 AM 3.2°F-16.0°C -1.6°F-18.7°C 80% 4.6 mph WNW7.4 kmh WNW 5.8 mph9.3 kmh 30.57 in1035.2 mb - 0.00 in0.0 mm 0.00 in0.0 mm
01:35 AM 3.2°F-16.0°C -1.3°F-18.5°C 81% 4.6 mph N7.4 kmh N 10.4 mph16.7 kmh 30.57 in1035.2 mb - 0.00 in0.0 mm 0.00 in0.0 mm
01:40 AM 3.2°F-16.0°C -1.3°F-18.5°C 81% 4.6 mph W7.4 kmh W 4.6 mph7.4 kmh 30.57 in1035.2 mb - 0.00 in0.0 mm 0.00 in0.0 mm
01:45 AM 3.2°F-16.0°C -1.3°F-18.5°C 81% 5.8 mph W9.3 kmh W 6.9 mph11.1 kmh 30.57 in1035.2 mb - 0.00 in0.0 mm 0.00 in0.0 mm
01:50 AM 3.2°F-16.0°C -1.3°F-18.5°C 81% 4.6 mph WNW7.4 kmh WNW 5.8 mph9.3 kmh 30.57 in1035.2 mb - 0.00 in0.0 mm 0.00 in0.0 mm
01:55 AM 3.2°F-16.0°C -1.3°F-18.5°C 81% 5.8 mph WNW9.3 kmh WNW 8.1 mph13.0 kmh 30.57 in1035.2 mb - 0.00 in0.0 mm 0.00 in0.0 mm
02:00 AM 3.2°F-16.0°C -1.3°F-18.5°C 81% 4.6 mph NW7.4 kmh NW 3.5 mph5.6 kmh 30.58 in1035.6 mb - 0.00 in0.0 mm 0.00 in0.0 mm
02:10 AM 3.2°F-16.0°C -1.3°F-18.5°C 81% 3.5 mph N5.6 kmh N 3.5 mph5.6 kmh 30.57 in1035.2 mb - 0.00 in0.0 mm 0.00 in0.0 mm
02:15 AM 3.2°F-16.0°C -1.3°F-18.5°C 81% 2.3 mph WSW3.7 kmh WSW 3.5 mph5.6 kmh 30.58 in1035.6 mb - 0.00 in0.0 mm 0.00 in0.0 mm
02:20 AM 3.2°F-16.0°C -1.3°F-18.5°C 81% 4.6 mph WNW7.4 kmh WNW 4.6 mph7.4 kmh 30.58 in1035.6 mb - 0.00 in0.0 mm 0.00 in0.0 mm
02:25 AM 3.2°F-16.0°C -1.3°F-18.5°C 81% 3.5 mph WNW5.6 kmh WNW 4.6 mph7.4 kmh 30.58 in1035.6 mb - 0.00 in0.0 mm 0.00 in0.0 mm
02:30 AM 3.2°F-16.0°C -1.3°F-18.5°C 81% 3.5 mph W5.6 kmh W 6.9 mph11.1 kmh 30.58 in1035.6 mb - 0.00 in0.0 mm 0.00 in0.0 mm
02:35 AM 3.2°F-16.0°C -1.3°F-18.5°C 81% 5.8 mph W9.3 kmh W 8.1 mph13.0 kmh 30.58 in1035.6 mb - 0.00 in0.0 mm 0.00 in0.0 mm
02:40 AM 3.2°F-16.0°C -1.3°F-18.5°C 81% 4.6 mph WNW7.4 kmh WNW 3.5 mph5.6 kmh 30.58 in1035.6 mb - 0.00 in0.0 mm 0.00 in0.0 mm
02:45 AM 3.2°F-16.0°C -1.3°F-18.5°C 81% 3.5 mph W5.6 kmh W 3.5 mph5.6 kmh 30.58 in1035.6 mb - 0.00 in0.0 mm 0.00 in0.0 mm
02:50 AM 3.2°F-16.0°C -1.3°F-18.5°C 81% 3.5 mph WSW5.6 kmh WSW 4.6 mph7.4 kmh 30.58 in1035.6 mb - 0.00 in0.0 mm 0.00 in0.0 mm
02:55 AM 3.2°F-16.0°C -1.3°F-18.5°C 81% 4.6 mph WNW7.4 kmh WNW 4.6 mph7.4 kmh 30.58 in1035.6 mb - 0.00 in0.0 mm 0.00 in0.0 mm
03:00 AM 3.2°F-16.0°C -1.3°F-18.5°C 81% 4.6 mph WSW7.4 kmh WSW 5.8 mph9.3 kmh 30.59 in1035.9 mb - 0.00 in0.0 mm 0.00 in0.0 mm
03:10 AM 3.2°F-16.0°C -1.3°F-18.5°C 81% 3.5 mph WNW5.6 kmh WNW 4.6 mph7.4 kmh 30.58 in1035.6 mb - 0.00 in0.0 mm 0.00 in0.0 mm
03:15 AM 1.4°F-17.0°C -3.1°F-19.5°C 81% 4.6 mph W7.4 kmh W 4.6 mph7.4 kmh 30.58 in1035.6 mb - 0.00 in0.0 mm 0.00 in0.0 mm
03:20 AM 1.4°F-17.0°C -3.1°F-19.5°C 81% 4.6 mph W7.4 kmh W 6.9 mph11.1 kmh 30.58 in1035.6 mb - 0.00 in0.0 mm 0.00 in0.0 mm
03:25 AM 1.4°F-17.0°C -3.1°F-19.5°C 81% 4.6 mph W7.4 kmh W 5.8 mph9.3 kmh 30.59 in1035.9 mb - 0.00 in0.0 mm 0.00 in0.0 mm
03:30 AM 1.4°F-17.0°C -3.1°F-19.5°C 81% 4.6 mph W7.4 kmh W 5.8 mph9.3 kmh 30.59 in1035.9 mb - 0.00 in0.0 mm 0.00 in0.0 mm
03:35 AM 1.4°F-17.0°C -3.1°F-19.5°C 81% 4.6 mph W7.4 kmh W 9.2 mph14.8 kmh 30.59 in1035.9 mb - 0.00 in0.0 mm 0.00 in0.0 mm
03:40 AM 1.4°F-17.0°C -3.1°F-19.5°C 81% 4.6 mph NW7.4 kmh NW 4.6 mph7.4 kmh 30.58 in1035.6 mb - 0.00 in0.0 mm 0.00 in0.0 mm
03:45 AM 1.4°F-17.0°C -3.1°F-19.5°C 81% 4.6 mph W7.4 kmh W 6.9 mph11.1 kmh 30.58 in1035.6 mb - 0.00 in0.0 mm 0.00 in0.0 mm
03:50 AM 1.4°F-17.0°C -3.1°F-19.5°C 81% 4.6 mph WSW7.4 kmh WSW 3.5 mph5.6 kmh 30.58 in1035.6 mb - 0.00 in0.0 mm 0.00 in0.0 mm
03:55 AM 1.4°F-17.0°C -3.1°F-19.5°C 81% 4.6 mph NW7.4 kmh NW 6.9 mph11.1 kmh 30.59 in1035.9 mb - 0.00 in0.0 mm 0.00 in0.0 mm
04:00 AM 1.4°F-17.0°C -3.1°F-19.5°C 81% 4.6 mph W7.4 kmh W 8.1 mph13.0 kmh 30.58 in1035.6 mb - 0.00 in0.0 mm 0.00 in0.0 mm
04:10 AM 1.4°F-17.0°C -3.1°F-19.5°C 81% 5.8 mph W9.3 kmh W 5.8 mph9.3 kmh 30.58 in1035.6 mb - 0.00 in0.0 mm 0.00 in0.0 mm
04:15 AM 1.4°F-17.0°C -3.1°F-19.5°C 81% 5.8 mph WSW9.3 kmh WSW 8.1 mph13.0 kmh 30.59 in1035.9 mb - 0.00 in0.0 mm 0.00 in0.0 mm
04:20 AM 1.4°F-17.0°C -3.1°F-19.5°C 81% 4.6 mph W7.4 kmh W 8.1 mph13.0 kmh 30.59 in1035.9 mb - 0.00 in0.0 mm 0.00 in0.0 mm
04:25 AM 1.4°F-17.0°C -3.1°F-19.5°C 81% 4.6 mph WSW7.4 kmh WSW 6.9 mph11.1 kmh 30.58 in1035.6 mb - 0.00 in0.0 mm 0.00 in0.0 mm
04:30 AM 1.4°F-17.0°C -3.1°F-19.5°C 81% 4.6 mph W7.4 kmh W 5.8 mph9.3 kmh 30.59 in1035.9 mb - 0.00 in0.0 mm 0.00 in0.0 mm
04:35 AM 1.4°F-17.0°C -3.1°F-19.5°C 81% 5.8 mph W9.3 kmh W 9.2 mph14.8 kmh 30.59 in1035.9 mb - 0.00 in0.0 mm 0.00 in0.0 mm
04:40 AM 1.4°F-17.0°C -3.1°F-19.5°C 81% 4.6 mph W7.4 kmh W 3.5 mph5.6 kmh 30.59 in1035.9 mb - 0.00 in0.0 mm 0.00 in0.0 mm
04:45 AM -0.4°F-18.0°C -4.8°F-20.4°C 81% 4.6 mph W7.4 kmh W 8.1 mph13.0 kmh 30.59 in1035.9 mb - 0.00 in0.0 mm 0.00 in0.0 mm
04:50 AM -0.4°F-18.0°C -4.8°F-20.4°C 81% 5.8 mph S9.3 kmh S 8.1 mph13.0 kmh 30.59 in1035.9 mb - 0.00 in0.0 mm 0.00 in0.0 mm
04:55 AM -0.4°F-18.0°C -4.8°F-20.4°C 81% 4.6 mph ESE7.4 kmh ESE 5.8 mph9.3 kmh 30.59 in1035.9 mb - 0.00 in0.0 mm 0.00 in0.0 mm
05:00 AM -0.4°F-18.0°C -4.8°F-20.4°C 81% 4.6 mph ESE7.4 kmh ESE 5.8 mph9.3 kmh 30.59 in1035.9 mb - 0.00 in0.0 mm 0.00 in0.0 mm
05:10 AM -0.4°F-18.0°C -4.8°F-20.4°C 81% 4.6 mph WNW7.4 kmh WNW 6.9 mph11.1 kmh 30.59 in1035.9 mb - 0.00 in0.0 mm 0.00 in0.0 mm
05:15 AM -0.4°F-18.0°C -4.8°F-20.4°C 81% 4.6 mph W7.4 kmh W 6.9 mph11.1 kmh 30.60 in1036.2 mb - 0.00 in0.0 mm 0.00 in0.0 mm
05:20 AM -0.4°F-18.0°C -4.8°F-20.4°C 81% 4.6 mph W7.4 kmh W 6.9 mph11.1 kmh 30.60 in1036.2 mb - 0.00 in0.0 mm 0.00 in0.0 mm
05:25 AM -0.4°F-18.0°C -4.8°F-20.4°C 81% 5.8 mph W9.3 kmh W 9.2 mph14.8 kmh 30.60 in1036.2 mb - 0.00 in0.0 mm 0.00 in0.0 mm
05:30 AM -0.4°F-18.0°C -4.8°F-20.4°C 81% 5.8 mph W9.3 kmh W 3.5 mph5.6 kmh 30.60 in1036.2 mb - 0.00 in0.0 mm 0.00 in0.0 mm
05:35 AM -0.4°F-18.0°C -4.8°F-20.4°C 81% 4.6 mph WSW7.4 kmh WSW 4.6 mph7.4 kmh 30.61 in1036.6 mb - 0.00 in0.0 mm 0.00 in0.0 mm
05:40 AM -0.4°F-18.0°C -4.8°F-20.4°C 81% 5.8 mph NW9.3 kmh NW 8.1 mph13.0 kmh 30.60 in1036.2 mb - 0.00 in0.0 mm 0.00 in0.0 mm
05:45 AM -0.4°F-18.0°C -4.8°F-20.4°C 81% 4.6 mph W7.4 kmh W 5.8 mph9.3 kmh 30.60 in1036.2 mb - 0.00 in0.0 mm 0.00 in0.0 mm
05:50 AM -0.4°F-18.0°C -4.8°F-20.4°C 81% 4.6 mph W7.4 kmh W 3.5 mph5.6 kmh 30.60 in1036.2 mb - 0.00 in0.0 mm 0.00 in0.0 mm
05:55 AM -0.4°F-18.0°C -4.8°F-20.4°C 81% 4.6 mph W7.4 kmh W 6.9 mph11.1 kmh 30.60 in1036.2 mb - 0.00 in0.0 mm 0.00 in0.0 mm
06:00 AM -0.4°F-18.0°C -4.8°F-20.4°C 81% 5.8 mph W9.3 kmh W 11.5 mph18.5 kmh 30.62 in1036.9 mb - 0.00 in0.0 mm 0.00 in0.0 mm
06:10 AM -0.4°F-18.0°C -4.8°F-20.4°C 81% 5.8 mph W9.3 kmh W 5.8 mph9.3 kmh 30.61 in1036.6 mb - 0.00 in0.0 mm 0.00 in0.0 mm
06:15 AM -0.4°F-18.0°C -4.8°F-20.4°C 81% 4.6 mph W7.4 kmh W 8.1 mph13.0 kmh 30.61 in1036.6 mb - 0.00 in0.0 mm 0.00 in0.0 mm
06:20 AM -0.4°F-18.0°C -4.8°F-20.4°C 81% 4.6 mph WSW7.4 kmh WSW 4.6 mph7.4 kmh 30.61 in1036.6 mb - 0.00 in0.0 mm 0.00 in0.0 mm
06:25 AM -0.4°F-18.0°C -4.8°F-20.4°C 81% 4.6 mph WSW7.4 kmh WSW 8.1 mph13.0 kmh 30.61 in1036.6 mb - 0.00 in0.0 mm 0.00 in0.0 mm
06:30 AM -0.4°F-18.0°C -4.8°F-20.4°C 81% 4.6 mph W7.4 kmh W 6.9 mph11.1 kmh 30.61 in1036.6 mb - 0.00 in0.0 mm 0.00 in0.0 mm
06:35 AM -0.4°F-18.0°C -4.8°F-20.4°C 81% 4.6 mph WSW7.4 kmh WSW 5.8 mph9.3 kmh 30.61 in1036.6 mb - 0.00 in0.0 mm 0.00 in0.0 mm
06:40 AM -0.4°F-18.0°C -4.8°F-20.4°C 81% 5.8 mph W9.3 kmh W 8.1 mph13.0 kmh 30.62 in1036.9 mb - 0.00 in0.0 mm 0.00 in0.0 mm
06:45 AM -0.4°F-18.0°C -4.8°F-20.4°C 81% 5.8 mph WNW9.3 kmh WNW 5.8 mph9.3 kmh 30.62 in1036.9 mb - 0.00 in0.0 mm 0.00 in0.0 mm
06:50 AM -0.4°F-18.0°C -4.8°F-20.4°C 81% 5.8 mph WNW9.3 kmh WNW 4.6 mph7.4 kmh 30.62 in1036.9 mb - 0.00 in0.0 mm 0.00 in0.0 mm
06:55 AM -0.4°F-18.0°C -4.8°F-20.4°C 81% 4.6 mph W7.4 kmh W 4.6 mph7.4 kmh 30.62 in1036.9 mb - 0.00 in0.0 mm 0.00 in0.0 mm
07:00 AM -0.4°F-18.0°C -4.8°F-20.4°C 81% 4.6 mph W7.4 kmh W 6.9 mph11.1 kmh 30.62 in1036.9 mb - 0.00 in0.0 mm 0.00 in0.0 mm
07:10 AM -2.2°F-19.0°C -6.6°F-21.4°C 81% 4.6 mph W7.4 kmh W 8.1 mph13.0 kmh 30.62 in1036.9 mb - 0.00 in0.0 mm 0.00 in0.0 mm
07:15 AM -2.2°F-19.0°C -6.1°F-21.2°C 83% 4.6 mph WNW7.4 kmh WNW 6.9 mph11.1 kmh 30.62 in1036.9 mb - 0.00 in0.0 mm 0.00 in0.0 mm
07:20 AM -2.2°F-19.0°C -6.1°F-21.2°C 83% 4.6 mph WNW7.4 kmh WNW 5.8 mph9.3 kmh 30.63 in1037.3 mb - 0.00 in0.0 mm 0.00 in0.0 mm
07:25 AM -2.2°F-19.0°C -6.1°F-21.2°C 83% 3.5 mph W5.6 kmh W 6.9 mph11.1 kmh 30.63 in1037.3 mb - 0.00 in0.0 mm 0.00 in0.0 mm
07:30 AM -2.2°F-19.0°C -6.1°F-21.2°C 83% 5.8 mph NW9.3 kmh NW 5.8 mph9.3 kmh 30.63 in1037.3 mb - 0.00 in0.0 mm 0.00 in0.0 mm
07:35 AM -2.2°F-19.0°C -6.1°F-21.2°C 83% 4.6 mph WSW7.4 kmh WSW 5.8 mph9.3 kmh 30.64 in1037.6 mb - 0.00 in0.0 mm 0.00 in0.0 mm
07:40 AM -2.2°F-19.0°C -6.1°F-21.2°C 83% 5.8 mph WNW9.3 kmh WNW 4.6 mph7.4 kmh 30.63 in1037.3 mb - 0.00 in0.0 mm 0.00 in0.0 mm
07:45 AM -2.2°F-19.0°C -6.1°F-21.2°C 83% 4.6 mph WSW7.4 kmh WSW 4.6 mph7.4 kmh 30.63 in1037.3 mb - 0.00 in0.0 mm 0.00 in0.0 mm
07:50 AM -2.2°F-19.0°C -6.1°F-21.2°C 83% 3.5 mph N5.6 kmh N 4.6 mph7.4 kmh 30.64 in1037.6 mb - 0.00 in0.0 mm 0.00 in0.0 mm
07:55 AM -2.2°F-19.0°C -6.1°F-21.2°C 83% 5.8 mph W9.3 kmh W 5.8 mph9.3 kmh 30.64 in1037.6 mb - 0.00 in0.0 mm 0.00 in0.0 mm
08:00 AM -2.2°F-19.0°C -6.1°F-21.2°C 83% 4.6 mph WNW7.4 kmh WNW 5.8 mph9.3 kmh 30.64 in1037.6 mb - 0.00 in0.0 mm 0.00 in0.0 mm
08:10 AM -0.4°F-18.0°C -4.3°F-20.2°C 83% 5.8 mph W9.3 kmh W 8.1 mph13.0 kmh 30.64 in1037.6 mb - 0.00 in0.0 mm 0.00 in0.0 mm
08:15 AM -0.4°F-18.0°C -4.8°F-20.4°C 81% 5.8 mph WNW9.3 kmh WNW 6.9 mph11.1 kmh 30.65 in1037.9 mb - 0.00 in0.0 mm 0.00 in0.0 mm
08:20 AM -0.4°F-18.0°C -4.8°F-20.4°C 81% 5.8 mph NW9.3 kmh NW 6.9 mph11.1 kmh 30.64 in1037.6 mb - 0.00 in0.0 mm 0.00 in0.0 mm
08:25 AM -0.4°F-18.0°C -4.8°F-20.4°C 81% 5.8 mph WNW9.3 kmh WNW 10.4 mph16.7 kmh 30.64 in1037.6 mb - 0.00 in0.0 mm 0.00 in0.0 mm
08:30 AM -0.4°F-18.0°C -4.8°F-20.4°C 81% 5.8 mph WNW9.3 kmh WNW 3.5 mph5.6 kmh 30.66 in1038.3 mb - 0.00 in0.0 mm 0.00 in0.0 mm
08:35 AM 1.4°F-17.0°C -3.3°F-19.6°C 80% 5.8 mph W9.3 kmh W 8.1 mph13.0 kmh 30.65 in1037.9 mb - 0.00 in0.0 mm 0.00 in0.0 mm
08:40 AM -0.4°F-18.0°C -5.1°F-20.6°C 80% 6.9 mph W11.1 kmh W 11.5 mph18.5 kmh 30.66 in1038.3 mb - 0.00 in0.0 mm 0.00 in0.0 mm
08:45 AM 0.2°F-17.7°C -4.5°F-20.3°C 80% 6.9 mph WNW11.1 kmh WNW 8.1 mph13.0 kmh 30.65 in1037.9 mb - 0.00 in0.0 mm 0.00 in0.0 mm
08:50 AM 1.4°F-17.0°C -3.3°F-19.6°C 80% 4.6 mph W7.4 kmh W 5.8 mph9.3 kmh 30.66 in1038.3 mb - 0.00 in0.0 mm 0.00 in0.0 mm
08:55 AM 1.4°F-17.0°C -3.6°F-19.8°C 79% 4.6 mph NW7.4 kmh NW 5.8 mph9.3 kmh 30.66 in1038.3 mb - 0.00 in0.0 mm 0.00 in0.0 mm
09:00 AM 1.4°F-17.0°C -3.9°F-19.9°C 78% 5.8 mph NW9.3 kmh NW 5.8 mph9.3 kmh 30.65 in1037.9 mb - 0.00 in0.0 mm 0.00 in0.0 mm
09:10 AM 3.2°F-16.0°C -2.7°F-19.3°C 76% 4.6 mph NW7.4 kmh NW 5.8 mph9.3 kmh 30.66 in1038.3 mb - 0.00 in0.0 mm 0.00 in0.0 mm
09:15 AM 3.2°F-16.0°C -2.9°F-19.4°C 75% 3.5 mph WSW5.6 kmh WSW 3.5 mph5.6 kmh 30.66 in1038.3 mb - 0.00 in0.0 mm 0.00 in0.0 mm
09:20 AM 3.2°F-16.0°C -2.9°F-19.4°C 75% 3.5 mph NW5.6 kmh NW 5.8 mph9.3 kmh 30.67 in1038.6 mb - 0.00 in0.0 mm 0.00 in0.0 mm
09:25 AM 5.0°F-15.0°C -1.5°F-18.6°C 74% 4.6 mph W7.4 kmh W 4.6 mph7.4 kmh 30.66 in1038.3 mb - 0.00 in0.0 mm 0.00 in0.0 mm
09:30 AM 5.0°F-15.0°C -1.5°F-18.6°C 74% 3.5 mph NW5.6 kmh NW 4.6 mph7.4 kmh 30.66 in1038.3 mb - 0.00 in0.0 mm 0.00 in0.0 mm
09:35 AM 5.0°F-15.0°C -2.4°F-19.1°C 71% 4.6 mph W7.4 kmh W 4.6 mph7.4 kmh 30.66 in1038.3 mb - 0.00 in0.0 mm 0.00 in0.0 mm
09:40 AM 5.0°F-15.0°C -2.4°F-19.1°C 71% 4.6 mph WNW7.4 kmh WNW 3.5 mph5.6 kmh 30.66 in1038.3 mb - 0.00 in0.0 mm 0.00 in0.0 mm
09:45 AM 5.0°F-15.0°C -2.7°F-19.3°C 70% 5.8 mph NW9.3 kmh NW 5.8 mph9.3 kmh 30.67 in1038.6 mb - 0.00 in0.0 mm 0.00 in0.0 mm
09:50 AM 5.0°F-15.0°C -2.4°F-19.1°C 71% 3.5 mph SW5.6 kmh SW 3.5 mph5.6 kmh 30.67 in1038.6 mb - 0.00 in0.0 mm 0.00 in0.0 mm
09:55 AM 6.8°F-14.0°C -0.9°F-18.3°C 70% 4.6 mph WNW7.4 kmh WNW 5.8 mph9.3 kmh 30.67 in1038.6 mb - 0.00 in0.0 mm 0.00 in0.0 mm
10:00 AM 6.8°F-14.0°C -0.9°F-18.3°C 70% 4.6 mph W7.4 kmh W 5.8 mph9.3 kmh 30.67 in1038.6 mb - 0.00 in0.0 mm 0.00 in0.0 mm
10:10 AM 6.8°F-14.0°C -0.9°F-18.3°C 70% 4.6 mph NW7.4 kmh NW 3.5 mph5.6 kmh 30.67 in1038.6 mb - 0.00 in0.0 mm 0.00 in0.0 mm
10:15 AM 6.8°F-14.0°C -0.9°F-18.3°C 70% 4.6 mph W7.4 kmh W 6.9 mph11.1 kmh 30.68 in1038.9 mb - 0.00 in0.0 mm 0.00 in0.0 mm
10:20 AM 8.6°F-13.0°C 0.5°F-17.5°C 69% 4.6 mph W7.4 kmh W 3.5 mph5.6 kmh 30.67 in1038.6 mb - 0.00 in0.0 mm 0.00 in0.0 mm
10:25 AM 8.6°F-13.0°C 0.8°F-17.3°C 70% 4.6 mph W7.4 kmh W 5.8 mph9.3 kmh 30.68 in1038.9 mb - 0.00 in0.0 mm 0.00 in0.0 mm
10:30 AM 8.6°F-13.0°C 0.8°F-17.3°C 70% 4.6 mph WNW7.4 kmh WNW 3.5 mph5.6 kmh 30.67 in1038.6 mb - 0.00 in0.0 mm 0.00 in0.0 mm
10:35 AM 8.6°F-13.0°C 0.8°F-17.3°C 70% 3.5 mph WNW5.6 kmh WNW 3.5 mph5.6 kmh 30.68 in1038.9 mb - 0.00 in0.0 mm 0.00 in0.0 mm
10:40 AM 8.6°F-13.0°C 0.2°F-17.7°C 68% 4.6 mph WNW7.4 kmh WNW 8.1 mph13.0 kmh 30.66 in1038.3 mb - 0.00 in0.0 mm 0.00 in0.0 mm
10:45 AM 8.6°F-13.0°C 0.8°F-17.3°C 70% 5.8 mph W9.3 kmh W 6.9 mph11.1 kmh 30.67 in1038.6 mb - 0.00 in0.0 mm 0.00 in0.0 mm
10:50 AM 8.6°F-13.0°C 0.2°F-17.7°C 68% 5.8 mph W9.3 kmh W 6.9 mph11.1 kmh 30.66 in1038.3 mb - 0.00 in0.0 mm 0.00 in0.0 mm
10:55 AM 9.9°F-12.3°C 2.4°F-16.4°C 71% 4.6 mph WSW7.4 kmh WSW 8.1 mph13.0 kmh 30.66 in1038.3 mb - 0.00 in0.0 mm 0.00 in0.0 mm
11:00 AM 10.4°F-12.0°C 2.2°F-16.6°C 69% 4.6 mph SW7.4 kmh SW 5.8 mph9.3 kmh 30.66 in1038.3 mb - 0.00 in0.0 mm 0.00 in0.0 mm
11:10 AM 8.6°F-13.0°C 0.5°F-17.5°C 69% 5.8 mph NW9.3 kmh NW 6.9 mph11.1 kmh 30.66 in1038.3 mb - 0.00 in0.0 mm 0.00 in0.0 mm
11:15 AM 8.6°F-13.0°C 0.2°F-17.7°C 68% 6.9 mph NW11.1 kmh NW 9.2 mph14.8 kmh 30.66 in1038.3 mb - 0.00 in0.0 mm 0.00 in0.0 mm
11:20 AM 10.4°F-12.0°C 2.2°F-16.6°C 69% 5.8 mph W9.3 kmh W 8.1 mph13.0 kmh 30.66 in1038.3 mb - 0.00 in0.0 mm 0.00 in0.0 mm
11:25 AM 10.4°F-12.0°C 2.2°F-16.6°C 69% 5.8 mph W9.3 kmh W 6.9 mph11.1 kmh 30.66 in1038.3 mb - 0.00 in0.0 mm 0.00 in0.0 mm
11:30 AM 10.4°F-12.0°C 1.9°F-16.7°C 68% 5.8 mph W9.3 kmh W 3.5 mph5.6 kmh 30.66 in1038.3 mb - 0.00 in0.0 mm 0.00 in0.0 mm
11:35 AM 10.4°F-12.0°C 2.2°F-16.6°C 69% 4.6 mph WNW7.4 kmh WNW 5.8 mph9.3 kmh 30.65 in1037.9 mb - 0.00 in0.0 mm 0.00 in0.0 mm
11:40 AM 10.4°F-12.0°C 1.3°F-17.1°C 66% 6.9 mph W11.1 kmh W 9.2 mph14.8 kmh 30.65 in1037.9 mb - 0.00 in0.0 mm 0.00 in0.0 mm
11:45 AM 10.4°F-12.0°C 1.9°F-16.7°C 68% 6.9 mph W11.1 kmh W 6.9 mph11.1 kmh 30.64 in1037.6 mb - 0.00 in0.0 mm 0.00 in0.0 mm
11:50 AM 10.4°F-12.0°C 1.3°F-17.1°C 66% 6.9 mph WNW11.1 kmh WNW 8.1 mph13.0 kmh 30.64 in1037.6 mb - 0.00 in0.0 mm 0.00 in0.0 mm
11:55 AM 10.4°F-12.0°C 1.3°F-17.1°C 66% 6.9 mph WNW11.1 kmh WNW 8.1 mph13.0 kmh 30.65 in1037.9 mb - 0.00 in0.0 mm 0.00 in0.0 mm
12:00 PM 10.4°F-12.0°C 1.6°F-16.9°C 67% 4.6 mph NW7.4 kmh NW 4.6 mph7.4 kmh 30.65 in1037.9 mb - 0.00 in0.0 mm 0.00 in0.0 mm
12:10 PM 10.4°F-12.0°C 1.0°F-17.2°C 65% 8.1 mph NW13.0 kmh NW 10.4 mph16.7 kmh 30.65 in1037.9 mb - 0.00 in0.0 mm 0.00 in0.0 mm
12:15 PM 10.4°F-12.0°C 1.9°F-16.7°C 68% 6.9 mph W11.1 kmh W 8.1 mph13.0 kmh 30.64 in1037.6 mb - 0.00 in0.0 mm 0.00 in0.0 mm
12:20 PM 10.4°F-12.0°C 1.0°F-17.2°C 65% 6.9 mph W11.1 kmh W 8.1 mph13.0 kmh 30.64 in1037.6 mb - 0.00 in0.0 mm 0.00 in0.0 mm
12:25 PM 10.4°F-12.0°C 1.0°F-17.2°C 65% 5.8 mph W9.3 kmh W 12.7 mph20.4 kmh 30.64 in1037.6 mb - 0.00 in0.0 mm 0.00 in0.0 mm
12:30 PM 10.4°F-12.0°C 1.3°F-17.1°C 66% 8.1 mph WNW13.0 kmh WNW 11.5 mph18.5 kmh 30.64 in1037.6 mb - 0.00 in0.0 mm 0.00 in0.0 mm
12:35 PM 10.4°F-12.0°C 1.3°F-17.1°C 66% 5.8 mph WNW9.3 kmh WNW 5.8 mph9.3 kmh 30.64 in1037.6 mb - 0.00 in0.0 mm 0.00 in0.0 mm
12:40 PM 10.4°F-12.0°C 0.6°F-17.4°C 64% 8.1 mph NW13.0 kmh NW 9.2 mph14.8 kmh 30.64 in1037.6 mb - 0.00 in0.0 mm 0.00 in0.0 mm
12:45 PM 10.4°F-12.0°C 1.0°F-17.2°C 65% 6.9 mph WNW11.1 kmh WNW 3.5 mph5.6 kmh 30.64 in1037.6 mb - 0.00 in0.0 mm 0.00 in0.0 mm
12:50 PM 10.4°F-12.0°C 1.0°F-17.2°C 65% 6.9 mph W11.1 kmh W 6.9 mph11.1 kmh 30.63 in1037.3 mb - 0.00 in0.0 mm 0.00 in0.0 mm
12:55 PM 12.2°F-11.0°C 2.7°F-16.3°C 65% 4.6 mph WNW7.4 kmh WNW 5.8 mph9.3 kmh 30.64 in1037.6 mb - 0.00 in0.0 mm 0.00 in0.0 mm
01:00 PM 12.2°F-11.0°C 2.0°F-16.7°C 63% 6.9 mph W11.1 kmh W 9.2 mph14.8 kmh 30.64 in1037.6 mb - 0.00 in0.0 mm 0.00 in0.0 mm
01:10 PM 12.2°F-11.0°C 2.3°F-16.5°C 64% 5.8 mph NW9.3 kmh NW 6.9 mph11.1 kmh 30.64 in1037.6 mb - 0.00 in0.0 mm 0.00 in0.0 mm
01:15 PM 12.2°F-11.0°C 2.3°F-16.5°C 64% 6.9 mph WNW11.1 kmh WNW 8.1 mph13.0 kmh 30.63 in1037.3 mb - 0.00 in0.0 mm 0.00 in0.0 mm
01:20 PM 11.5°F-11.4°C 1.7°F-16.8°C 64% 4.6 mph W7.4 kmh W 6.9 mph11.1 kmh 30.63 in1037.3 mb - 0.00 in0.0 mm 0.00 in0.0 mm
01:25 PM 12.2°F-11.0°C 2.0°F-16.7°C 63% 4.6 mph W7.4 kmh W 5.8 mph9.3 kmh 30.63 in1037.3 mb - 0.00 in0.0 mm 0.00 in0.0 mm
01:30 PM 12.2°F-11.0°C 2.0°F-16.7°C 63% 5.8 mph W9.3 kmh W 11.5 mph18.5 kmh 30.63 in1037.3 mb - 0.00 in0.0 mm 0.00 in0.0 mm
01:35 PM 10.4°F-12.0°C 1.0°F-17.2°C 65% 5.8 mph W9.3 kmh W 6.9 mph11.1 kmh 30.63 in1037.3 mb - 0.00 in0.0 mm 0.00 in0.0 mm
01:40 PM 11.2°F-11.6°C 1.8°F-16.8°C 65% 4.6 mph W7.4 kmh W 5.8 mph9.3 kmh 30.63 in1037.3 mb - 0.00 in0.0 mm 0.00 in0.0 mm
01:45 PM 12.2°F-11.0°C 2.0°F-16.7°C 63% 5.8 mph W9.3 kmh W 9.2 mph14.8 kmh 30.63 in1037.3 mb - 0.00 in0.0 mm 0.00 in0.0 mm
01:50 PM 10.4°F-12.0°C 1.0°F-17.2°C 65% 5.8 mph NW9.3 kmh NW 10.4 mph16.7 kmh 30.63 in1037.3 mb - 0.00 in0.0 mm 0.00 in0.0 mm
01:55 PM 10.4°F-12.0°C 1.0°F-17.2°C 65% 5.8 mph WNW9.3 kmh WNW 6.9 mph11.1 kmh 30.64 in1037.6 mb - 0.00 in0.0 mm 0.00 in0.0 mm
02:00 PM 12.2°F-11.0°C 2.0°F-16.7°C 63% 5.8 mph W9.3 kmh W 9.2 mph14.8 kmh 30.64 in1037.6 mb - 0.00 in0.0 mm 0.00 in0.0 mm
02:10 PM 12.2°F-11.0°C 2.0°F-16.7°C 63% 4.6 mph N7.4 kmh N 10.4 mph16.7 kmh 30.64 in1037.6 mb - 0.00 in0.0 mm 0.00 in0.0 mm
02:15 PM 12.2°F-11.0°C 2.0°F-16.7°C 63% 5.8 mph NW9.3 kmh NW 6.9 mph11.1 kmh 30.65 in1037.9 mb - 0.00 in0.0 mm 0.00 in0.0 mm
02:20 PM 12.2°F-11.0°C 2.0°F-16.7°C 63% 4.6 mph WNW7.4 kmh WNW 3.5 mph5.6 kmh 30.65 in1037.9 mb - 0.00 in0.0 mm 0.00 in0.0 mm
02:25 PM 12.2°F-11.0°C 0.9°F-17.3°C 60% 4.6 mph NW7.4 kmh NW 5.8 mph9.3 kmh 30.64 in1037.6 mb - 0.00 in0.0 mm 0.00 in0.0 mm
02:30 PM 12.2°F-11.0°C 1.3°F-17.1°C 61% 3.5 mph NW5.6 kmh NW 4.6 mph7.4 kmh 30.65 in1037.9 mb - 0.00 in0.0 mm 0.00 in0.0 mm
02:35 PM 12.2°F-11.0°C 1.3°F-17.1°C 61% 4.6 mph WNW7.4 kmh WNW 10.4 mph16.7 kmh 30.64 in1037.6 mb - 0.00 in0.0 mm 0.00 in0.0 mm
02:40 PM 12.2°F-11.0°C 1.3°F-17.1°C 61% 4.6 mph W7.4 kmh W 5.8 mph9.3 kmh 30.64 in1037.6 mb - 0.00 in0.0 mm 0.00 in0.0 mm
02:45 PM 12.2°F-11.0°C 1.3°F-17.1°C 61% 5.8 mph W9.3 kmh W 5.8 mph9.3 kmh 30.64 in1037.6 mb - 0.00 in0.0 mm 0.00 in0.0 mm
02:50 PM 12.2°F-11.0°C 1.3°F-17.1°C 61% 4.6 mph S7.4 kmh S 5.8 mph9.3 kmh 30.64 in1037.6 mb - 0.00 in0.0 mm 0.00 in0.0 mm
02:55 PM 12.2°F-11.0°C 1.3°F-17.1°C 61% 4.6 mph W7.4 kmh W 6.9 mph11.1 kmh 30.65 in1037.9 mb - 0.00 in0.0 mm 0.00 in0.0 mm
03:00 PM 12.2°F-11.0°C 1.3°F-17.1°C 61% 4.6 mph WNW7.4 kmh WNW 4.6 mph7.4 kmh 30.65 in1037.9 mb - 0.00 in0.0 mm 0.00 in0.0 mm
03:10 PM 12.2°F-11.0°C 0.9°F-17.3°C 60% 3.5 mph W5.6 kmh W 4.6 mph7.4 kmh 30.65 in1037.9 mb - 0.00 in0.0 mm 0.00 in0.0 mm
03:15 PM 12.2°F-11.0°C 0.9°F-17.3°C 60% 4.6 mph WNW7.4 kmh WNW 4.6 mph7.4 kmh 30.65 in1037.9 mb - 0.00 in0.0 mm 0.00 in0.0 mm
03:20 PM 12.2°F-11.0°C 1.3°F-17.1°C 61% 2.3 mph WNW3.7 kmh WNW 4.6 mph7.4 kmh 30.65 in1037.9 mb - 0.00 in0.0 mm 0.00 in0.0 mm
03:25 PM 12.2°F-11.0°C 1.3°F-17.1°C 61% 3.5 mph WSW5.6 kmh WSW 4.6 mph7.4 kmh 30.65 in1037.9 mb - 0.00 in0.0 mm 0.00 in0.0 mm
03:30 PM 12.2°F-11.0°C 0.6°F-17.4°C 59% 4.6 mph SW7.4 kmh SW 5.8 mph9.3 kmh 30.66 in1038.3 mb - 0.00 in0.0 mm 0.00 in0.0 mm
03:35 PM 12.2°F-11.0°C 0.9°F-17.3°C 60% 5.8 mph W9.3 kmh W 8.1 mph13.0 kmh 30.65 in1037.9 mb - 0.00 in0.0 mm 0.00 in0.0 mm
03:40 PM 12.2°F-11.0°C 0.9°F-17.3°C 60% 4.6 mph NW7.4 kmh NW 4.6 mph7.4 kmh 30.65 in1037.9 mb - 0.00 in0.0 mm 0.00 in0.0 mm
03:45 PM 12.2°F-11.0°C 0.9°F-17.3°C 60% 4.6 mph W7.4 kmh W 3.5 mph5.6 kmh 30.65 in1037.9 mb - 0.00 in0.0 mm 0.00 in0.0 mm
03:50 PM 12.2°F-11.0°C 1.3°F-17.1°C 61% 3.5 mph SSW5.6 kmh SSW 3.5 mph5.6 kmh 30.65 in1037.9 mb - 0.00 in0.0 mm 0.00 in0.0 mm
03:55 PM 12.2°F-11.0°C 0.9°F-17.3°C 60% 3.5 mph WSW5.6 kmh WSW 4.6 mph7.4 kmh 30.65 in1037.9 mb - 0.00 in0.0 mm 0.00 in0.0 mm
04:00 PM 12.2°F-11.0°C 0.6°F-17.4°C 59% 3.5 mph WSW5.6 kmh WSW 4.6 mph7.4 kmh 30.66 in1038.3 mb - 0.00 in0.0 mm 0.00 in0.0 mm
04:10 PM 10.4°F-12.0°C -0.4°F-18.0°C 61% 4.6 mph WSW7.4 kmh WSW 5.8 mph9.3 kmh 30.65 in1037.9 mb - 0.00 in0.0 mm 0.00 in0.0 mm
04:15 PM 10.4°F-12.0°C -0.4°F-18.0°C 61% 4.6 mph W7.4 kmh W 5.8 mph9.3 kmh 30.65 in1037.9 mb - 0.00 in0.0 mm 0.00 in0.0 mm
04:20 PM 10.4°F-12.0°C 0.3°F-17.6°C 63% 2.3 mph W3.7 kmh W 3.5 mph5.6 kmh 30.66 in1038.3 mb - 0.00 in0.0 mm 0.00 in0.0 mm
04:25 PM 10.4°F-12.0°C 0.3°F-17.6°C 63% 3.5 mph WSW5.6 kmh WSW 3.5 mph5.6 kmh 30.66 in1038.3 mb - 0.00 in0.0 mm 0.00 in0.0 mm
04:30 PM 10.4°F-12.0°C 1.0°F-17.2°C 65% 2.3 mph WSW3.7 kmh WSW 3.5 mph5.6 kmh 30.66 in1038.3 mb - 0.00 in0.0 mm 0.00 in0.0 mm
04:35 PM 8.6°F-13.0°C -0.8°F-18.2°C 65% 2.3 mph WSW3.7 kmh WSW 3.5 mph5.6 kmh 30.66 in1038.3 mb - 0.00 in0.0 mm 0.00 in0.0 mm
04:40 PM 8.6°F-13.0°C -0.4°F-18.0°C 66% 2.3 mph WSW3.7 kmh WSW 2.3 mph3.7 kmh 30.66 in1038.3 mb - 0.00 in0.0 mm 0.00 in0.0 mm
04:45 PM 8.6°F-13.0°C -0.4°F-18.0°C 66% 2.3 mph SW3.7 kmh SW 4.6 mph7.4 kmh 30.66 in1038.3 mb - 0.00 in0.0 mm 0.00 in0.0 mm
04:50 PM 8.6°F-13.0°C 0.2°F-17.7°C 68% 3.5 mph W5.6 kmh W 3.5 mph5.6 kmh 30.66 in1038.3 mb - 0.00 in0.0 mm 0.00 in0.0 mm
04:55 PM 8.6°F-13.0°C 0.2°F-17.7°C 68% 3.5 mph WSW5.6 kmh WSW 3.5 mph5.6 kmh 30.66 in1038.3 mb - 0.00 in0.0 mm 0.00 in0.0 mm
05:00 PM 8.6°F-13.0°C 0.2°F-17.7°C 68% 2.3 mph WSW3.7 kmh WSW 3.5 mph5.6 kmh 30.66 in1038.3 mb - 0.00 in0.0 mm 0.00 in0.0 mm
05:10 PM 8.6°F-13.0°C 0.5°F-17.5°C 69% 2.3 mph W3.7 kmh W 3.5 mph5.6 kmh 30.66 in1038.3 mb - 0.00 in0.0 mm 0.00 in0.0 mm
05:15 PM 8.6°F-13.0°C 0.5°F-17.5°C 69% 2.3 mph WSW3.7 kmh WSW 3.5 mph5.6 kmh 30.66 in1038.3 mb - 0.00 in0.0 mm 0.00 in0.0 mm
05:20 PM 7.7°F-13.5°C -0.1°F-17.8°C 70% 2.3 mph WSW3.7 kmh WSW 3.5 mph5.6 kmh 30.67 in1038.6 mb - 0.00 in0.0 mm 0.00 in0.0 mm
05:25 PM 6.8°F-14.0°C -0.9°F-18.3°C 70% 2.3 mph SW3.7 kmh SW 3.5 mph5.6 kmh 30.66 in1038.3 mb - 0.00 in0.0 mm 0.00 in0.0 mm
05:30 PM 6.8°F-14.0°C -0.9°F-18.3°C 70% 2.3 mph SW3.7 kmh SW 2.3 mph3.7 kmh 30.66 in1038.3 mb - 0.00 in0.0 mm 0.00 in0.0 mm
05:35 PM 6.8°F-14.0°C -0.9°F-18.3°C 70% 2.3 mph SW3.7 kmh SW 2.3 mph3.7 kmh 30.67 in1038.6 mb - 0.00 in0.0 mm 0.00 in0.0 mm
05:40 PM 6.8°F-14.0°C -0.6°F-18.1°C 71% 1.2 mph SW1.9 kmh SW 1.2 mph1.9 kmh 30.67 in1038.6 mb - 0.00 in0.0 mm 0.00 in0.0 mm
05:45 PM 6.8°F-14.0°C 0.0°F-17.8°C 73% Calm Calm 1.2 mph1.9 kmh 30.67 in1038.6 mb - 0.00 in0.0 mm 0.00 in0.0 mm
05:50 PM 6.8°F-14.0°C 0.0°F-17.8°C 73% 1.2 mph SW1.9 kmh SW 2.3 mph3.7 kmh 30.67 in1038.6 mb - 0.00 in0.0 mm 0.00 in0.0 mm
05:55 PM 6.8°F-14.0°C 0.3°F-17.6°C 74% 1.2 mph WSW1.9 kmh WSW 3.5 mph5.6 kmh 30.67 in1038.6 mb - 0.00 in0.0 mm 0.00 in0.0 mm
06:00 PM 6.8°F-14.0°C 0.3°F-17.6°C 74% 2.3 mph WSW3.7 kmh WSW 2.3 mph3.7 kmh 30.68 in1038.9 mb - 0.00 in0.0 mm 0.00 in0.0 mm
06:10 PM 6.8°F-14.0°C 0.3°F-17.6°C 74% 2.3 mph SW3.7 kmh SW 3.5 mph5.6 kmh 30.67 in1038.6 mb - 0.00 in0.0 mm 0.00 in0.0 mm
06:15 PM 6.8°F-14.0°C 0.3°F-17.6°C 74% 2.3 mph WSW3.7 kmh WSW 3.5 mph5.6 kmh 30.67 in1038.6 mb - 0.00 in0.0 mm 0.00 in0.0 mm
06:20 PM 6.8°F-14.0°C 0.3°F-17.6°C 74% 2.3 mph WSW3.7 kmh WSW 3.5 mph5.6 kmh 30.66 in1038.3 mb - 0.00 in0.0 mm 0.00 in0.0 mm
06:25 PM 6.8°F-14.0°C 0.0°F-17.8°C 73% 2.3 mph SW3.7 kmh SW 3.5 mph5.6 kmh 30.68 in1038.9 mb - 0.00 in0.0 mm 0.00 in0.0 mm
06:30 PM 6.8°F-14.0°C 0.0°F-17.8°C 73% 2.3 mph SSW3.7 kmh SSW 3.5 mph5.6 kmh 30.67 in1038.6 mb - 0.00 in0.0 mm 0.00 in0.0 mm
06:35 PM 6.8°F-14.0°C 0.0°F-17.8°C 73% 2.3 mph WSW3.7 kmh WSW 3.5 mph5.6 kmh 30.68 in1038.9 mb - 0.00 in0.0 mm 0.00 in0.0 mm
06:40 PM 6.8°F-14.0°C 0.0°F-17.8°C 73% 2.3 mph WSW3.7 kmh WSW 3.5 mph5.6 kmh 30.68 in1038.9 mb - 0.00 in0.0 mm 0.00 in0.0 mm
06:45 PM 6.8°F-14.0°C 0.0°F-17.8°C 73% 2.3 mph SW3.7 kmh SW 3.5 mph5.6 kmh 30.67 in1038.6 mb - 0.00 in0.0 mm 0.00 in0.0 mm
06:50 PM 6.8°F-14.0°C 0.0°F-17.8°C 73% 2.3 mph WSW3.7 kmh WSW 2.3 mph3.7 kmh 30.67 in1038.6 mb - 0.00 in0.0 mm 0.00 in0.0 mm
06:55 PM 6.8°F-14.0°C 0.0°F-17.8°C 73% 1.2 mph WSW1.9 kmh WSW 3.5 mph5.6 kmh 30.66 in1038.3 mb - 0.00 in0.0 mm 0.00 in0.0 mm
07:00 PM 5.0°F-15.0°C -1.8°F-18.8°C 73% 2.3 mph SW3.7 kmh SW 1.2 mph1.9 kmh 30.66 in1038.3 mb - 0.00 in0.0 mm 0.00 in0.0 mm
07:10 PM 5.0°F-15.0°C -1.5°F-18.6°C 74% 2.3 mph SW3.7 kmh SW 3.5 mph5.6 kmh 30.68 in1038.9 mb - 0.00 in0.0 mm 0.00 in0.0 mm
07:15 PM 5.0°F-15.0°C -1.2°F-18.4°C 75% 1.2 mph SW1.9 kmh SW 2.3 mph3.7 kmh 30.68 in1038.9 mb - 0.00 in0.0 mm 0.00 in0.0 mm
07:20 PM 5.0°F-15.0°C -0.9°F-18.3°C 76% 1.2 mph WSW1.9 kmh WSW 2.3 mph3.7 kmh 30.68 in1038.9 mb - 0.00 in0.0 mm 0.00 in0.0 mm
07:25 PM 5.0°F-15.0°C -0.9°F-18.3°C 76% 1.2 mph SW1.9 kmh SW 3.5 mph5.6 kmh 30.67 in1038.6 mb - 0.00 in0.0 mm 0.00 in0.0 mm
07:30 PM 5.0°F-15.0°C -0.9°F-18.3°C 76% 2.3 mph SSW3.7 kmh SSW 2.3 mph3.7 kmh 30.67 in1038.6 mb - 0.00 in0.0 mm 0.00 in0.0 mm
07:35 PM 5.0°F-15.0°C -0.9°F-18.3°C 76% 1.2 mph SW1.9 kmh SW 3.5 mph5.6 kmh 30.67 in1038.6 mb - 0.00 in0.0 mm 0.00 in0.0 mm
07:40 PM 5.0°F-15.0°C -0.9°F-18.3°C 76% 1.2 mph SW1.9 kmh SW 2.3 mph3.7 kmh 30.68 in1038.9 mb - 0.00 in0.0 mm 0.00 in0.0 mm
07:45 PM 5.0°F-15.0°C -0.9°F-18.3°C 76% 1.2 mph SW1.9 kmh SW 2.3 mph3.7 kmh 30.67 in1038.6 mb - 0.00 in0.0 mm 0.00 in0.0 mm
07:50 PM 5.0°F-15.0°C -0.4°F-18.0°C 78% 2.3 mph SW3.7 kmh SW 3.5 mph5.6 kmh 30.68 in1038.9 mb - 0.00 in0.0 mm 0.00 in0.0 mm
07:55 PM 5.0°F-15.0°C -0.1°F-17.8°C 79% 2.3 mph WSW3.7 kmh WSW 2.3 mph3.7 kmh 30.68 in1038.9 mb - 0.00 in0.0 mm 0.00 in0.0 mm
08:00 PM 5.0°F-15.0°C -0.1°F-17.8°C 79% 2.3 mph SSW3.7 kmh SSW 2.3 mph3.7 kmh 30.68 in1038.9 mb - 0.00 in0.0 mm 0.00 in0.0 mm
08:10 PM 5.0°F-15.0°C -0.1°F-17.8°C 79% 2.3 mph SW3.7 kmh SW 3.5 mph5.6 kmh 30.67 in1038.6 mb - 0.00 in0.0 mm 0.00 in0.0 mm
08:15 PM 5.0°F-15.0°C -0.4°F-18.0°C 78% 3.5 mph SW5.6 kmh SW 3.5 mph5.6 kmh 30.68 in1038.9 mb - 0.00 in0.0 mm 0.00 in0.0 mm
08:20 PM 5.0°F-15.0°C -0.6°F-18.1°C 77% 3.5 mph SW5.6 kmh SW 5.8 mph9.3 kmh 30.67 in1038.6 mb - 0.00 in0.0 mm 0.00 in0.0 mm
08:25 PM 5.0°F-15.0°C -0.9°F-18.3°C 76% 3.5 mph WSW5.6 kmh WSW 3.5 mph5.6 kmh 30.67 in1038.6 mb - 0.00 in0.0 mm 0.00 in0.0 mm
08:30 PM 5.0°F-15.0°C -0.4°F-18.0°C 78% 2.3 mph SSW3.7 kmh SSW 2.3 mph3.7 kmh 30.68 in1038.9 mb - 0.00 in0.0 mm 0.00 in0.0 mm
08:35 PM 5.0°F-15.0°C -0.4°F-18.0°C 78% 2.3 mph WSW3.7 kmh WSW 3.5 mph5.6 kmh 30.68 in1038.9 mb - 0.00 in0.0 mm 0.00 in0.0 mm
08:40 PM 5.0°F-15.0°C -0.1°F-17.8°C 79% 1.2 mph SW1.9 kmh SW 3.5 mph5.6 kmh 30.68 in1038.9 mb - 0.00 in0.0 mm 0.00 in0.0 mm
08:45 PM 5.0°F-15.0°C -0.1°F-17.8°C 79% 2.3 mph WSW3.7 kmh WSW 3.5 mph5.6 kmh 30.67 in1038.6 mb - 0.00 in0.0 mm 0.00 in0.0 mm
08:50 PM 5.0°F-15.0°C -0.1°F-17.8°C 79% 2.3 mph SW3.7 kmh SW 3.5 mph5.6 kmh 30.67 in1038.6 mb - 0.00 in0.0 mm 0.00 in0.0 mm
08:55 PM 3.2°F-16.0°C -1.8°F-18.8°C 79% 2.3 mph W3.7 kmh W 3.5 mph5.6 kmh 30.68 in1038.9 mb - 0.00 in0.0 mm 0.00 in0.0 mm
09:00 PM 3.2°F-16.0°C -1.8°F-18.8°C 79% 2.3 mph SW3.7 kmh SW 3.5 mph5.6 kmh 30.67 in1038.6 mb - 0.00 in0.0 mm 0.00 in0.0 mm
09:10 PM 3.2°F-16.0°C -1.8°F-18.8°C 79% 2.3 mph WSW3.7 kmh WSW 3.5 mph5.6 kmh 30.68 in1038.9 mb - 0.00 in0.0 mm 0.00 in0.0 mm
09:15 PM 3.2°F-16.0°C -1.8°F-18.8°C 79% 2.3 mph WSW3.7 kmh WSW 3.5 mph5.6 kmh 30.68 in1038.9 mb - 0.00 in0.0 mm 0.00 in0.0 mm
09:20 PM 3.2°F-16.0°C -1.8°F-18.8°C 79% 2.3 mph WSW3.7 kmh WSW 3.5 mph5.6 kmh 30.68 in1038.9 mb - 0.00 in0.0 mm 0.00 in0.0 mm
09:25 PM 3.2°F-16.0°C -2.1°F-18.9°C 78% 3.5 mph SW5.6 kmh SW 3.5 mph5.6 kmh 30.68 in1038.9 mb - 0.00 in0.0 mm 0.00 in0.0 mm
09:30 PM 3.2°F-16.0°C -2.1°F-18.9°C 78% 2.3 mph W3.7 kmh W 2.3 mph3.7 kmh 30.68 in1038.9 mb - 0.00 in0.0 mm 0.00 in0.0 mm
09:35 PM 3.2°F-16.0°C -2.1°F-18.9°C 78% 3.5 mph W5.6 kmh W 3.5 mph5.6 kmh 30.68 in1038.9 mb - 0.00 in0.0 mm 0.00 in0.0 mm
09:40 PM 3.2°F-16.0°C -2.1°F-18.9°C 78% 3.5 mph W5.6 kmh W 3.5 mph5.6 kmh 30.68 in1038.9 mb - 0.00 in0.0 mm 0.00 in0.0 mm
09:45 PM 3.2°F-16.0°C -2.1°F-18.9°C 78% 2.3 mph SW3.7 kmh SW 5.8 mph9.3 kmh 30.69 in1039.3 mb - 0.00 in0.0 mm 0.00 in0.0 mm
09:50 PM 3.2°F-16.0°C -2.1°F-18.9°C 78% 2.3 mph SW3.7 kmh SW 3.5 mph5.6 kmh 30.68 in1038.9 mb - 0.00 in0.0 mm 0.00 in0.0 mm
09:55 PM 3.2°F-16.0°C -2.1°F-18.9°C 78% 2.3 mph SW3.7 kmh SW 3.5 mph5.6 kmh 30.68 in1038.9 mb - 0.00 in0.0 mm 0.00 in0.0 mm
10:00 PM 3.2°F-16.0°C -1.8°F-18.8°C 79% 2.3 mph W3.7 kmh W 3.5 mph5.6 kmh 30.68 in1038.9 mb - 0.00 in0.0 mm 0.00 in0.0 mm
10:10 PM 3.2°F-16.0°C -1.8°F-18.8°C 79% 1.2 mph SW1.9 kmh SW 2.3 mph3.7 kmh 30.68 in1038.9 mb - 0.00 in0.0 mm 0.00 in0.0 mm
10:15 PM 2.8°F-16.2°C -2.2°F-19.0°C 79% 1.2 mph WSW1.9 kmh WSW 2.3 mph3.7 kmh 30.68 in1038.9 mb - 0.00 in0.0 mm 0.00 in0.0 mm
10:20 PM 1.4°F-17.0°C -3.3°F-19.6°C 80% 2.3 mph W3.7 kmh W 3.5 mph5.6 kmh 30.68 in1038.9 mb - 0.00 in0.0 mm 0.00 in0.0 mm
10:25 PM 1.4°F-17.0°C -3.3°F-19.6°C 80% 1.2 mph SW1.9 kmh SW 3.5 mph5.6 kmh 30.68 in1038.9 mb - 0.00 in0.0 mm 0.00 in0.0 mm
10:30 PM 1.4°F-17.0°C -3.3°F-19.6°C 80% 1.2 mph W1.9 kmh W -- 30.68 in1038.9 mb - 0.00 in0.0 mm 0.00 in0.0 mm
10:35 PM 1.4°F-17.0°C -3.1°F-19.5°C 81% Calm Calm 1.2 mph1.9 kmh 30.68 in1038.9 mb - 0.00 in0.0 mm 0.00 in0.0 mm
10:40 PM 1.4°F-17.0°C -3.1°F-19.5°C 81% 2.3 mph WSW3.7 kmh WSW 2.3 mph3.7 kmh 30.68 in1038.9 mb - 0.00 in0.0 mm 0.00 in0.0 mm
10:45 PM 1.4°F-17.0°C -3.1°F-19.5°C 81% 1.2 mph SW1.9 kmh SW 1.2 mph1.9 kmh 30.68 in1038.9 mb - 0.00 in0.0 mm 0.00 in0.0 mm
10:50 PM 1.4°F-17.0°C -3.1°F-19.5°C 81% 1.2 mph WSW1.9 kmh WSW 2.3 mph3.7 kmh 30.68 in1038.9 mb - 0.00 in0.0 mm 0.00 in0.0 mm
10:55 PM 1.4°F-17.0°C -3.1°F-19.5°C 81% 1.2 mph SW1.9 kmh SW 2.3 mph3.7 kmh 30.68 in1038.9 mb - 0.00 in0.0 mm 0.00 in0.0 mm
11:00 PM 1.4°F-17.0°C -3.1°F-19.5°C 81% 1.2 mph SW1.9 kmh SW 2.3 mph3.7 kmh 30.68 in1038.9 mb - 0.00 in0.0 mm 0.00 in0.0 mm
11:10 PM 1.4°F-17.0°C -2.6°F-19.2°C 83% Calm Calm -- 30.68 in1038.9 mb - 0.00 in0.0 mm 0.00 in0.0 mm
11:15 PM 1.4°F-17.0°C -2.6°F-19.2°C 83% Calm Calm -- 30.68 in1038.9 mb - 0.00 in0.0 mm 0.00 in0.0 mm
11:20 PM -0.4°F-18.0°C -4.3°F-20.2°C 83% 1.2 mph SW1.9 kmh SW 1.2 mph1.9 kmh 30.68 in1038.9 mb - 0.00 in0.0 mm 0.00 in0.0 mm
11:25 PM -0.4°F-18.0°C -4.3°F-20.2°C 83% 1.2 mph S1.9 kmh S 2.3 mph3.7 kmh 30.68 in1038.9 mb - 0.00 in0.0 mm 0.00 in0.0 mm
11:30 PM -0.4°F-18.0°C -4.3°F-20.2°C 83% 1.2 mph SSW1.9 kmh SSW 2.3 mph3.7 kmh 30.68 in1038.9 mb - 0.00 in0.0 mm 0.00 in0.0 mm
11:35 PM 0.0°F-17.8°C -3.5°F-19.7°C 85% Calm Calm -- 30.68 in1038.9 mb - 0.00 in0.0 mm 0.00 in0.0 mm
11:40 PM -0.4°F-18.0°C -3.8°F-19.9°C 85% Calm Calm 1.2 mph1.9 kmh 30.69 in1039.3 mb - 0.00 in0.0 mm 0.00 in0.0 mm
11:45 PM -0.4°F-18.0°C -3.8°F-19.9°C 85% Calm Calm -- 30.69 in1039.3 mb - 0.00 in0.0 mm 0.00 in0.0 mm
11:50 PM -0.4°F-18.0°C -3.6°F-19.8°C 86% Calm Calm 2.3 mph3.7 kmh 30.68 in1038.9 mb - 0.00 in0.0 mm 0.00 in0.0 mm
11:55 PM -0.4°F-18.0°C -3.6°F-19.8°C 86% 1.2 mph SSW1.9 kmh SSW 2.3 mph3.7 kmh 30.68 in1038.9 mb - 0.00 in0.0 mm 0.00 in0.0 mm